aviador You're here:

VOCB Decoded Metar

COIMBATORE in INDIA
Report Time2017-08-18 14:00:00
UTC Time2017-08-18 14:15:32
Flight Rules mvfr MVFR
Wind200° at 12 kt
W.Decomp.*RWY 23: 10.6 kt HW 5.6 kt LCW
W.Rank200° ranks 1
Current wind is above 200° avg. (7.1)
Visibility6000 m
Phenomena:N/A
Clouds:Scattered 015 Hf
Scattered 080 Hf
Expected CloudBase > 1,200 ft AGL from Temp-Dew spread
CeilingNone
Temp25°C (ISA +13)
Dew Point22°C (83% RH)
QNH1007 hPa
Density Alt3,323 ft
Elevation1,309 ft
Report Wrong Elevation
Raw Report
METAR VOCB 181400Z 20012KT 6000 SCT015 SCT080 25/22 Q1007 NOSIG=

Extra information for VOCB:More info

Metar Taf Metar & Taf Last 4 Metars F.Rules Stats Wind Profile Meteogram Temp Stats Airport Information Weather charts Add Link Nearby VenuesMetar ALERT Operation Metar Decoded Social comments